Time;durP1;ratioP1;P1;durP2;ratioP2;P2;SDS_P1;SDS_P2;PMS_P1;PMS_P2;Temp;Humidity;BMP_temperature;BMP_pressure;BME280_temperature;BME280_humidity;BME280_pressure;Samples;Min_cycle;Max_cycle;Signal;HPM_P1;HPM_P2
2022/12/05 00:01:12;;;;;;;;;;;;;;;3.23;100.00;102035.56;5062979;28;19928;-75
2022/12/05 00:03:38;;;;;;;;;;;;;;;3.23;100.00;102046.91;5063428;28;20049;-75
2022/12/05 00:06:03;;;;;;;;;;;;;;;3.26;100.00;102043.41;5062026;28;19932;-74
2022/12/05 00:08:29;;;;;;;;;;;;;;;3.26;100.00;102044.31;5062800;28;19931;-75
2022/12/05 00:10:54;;;;;;;;;;;;;;;3.29;100.00;102047.78;5047980;28;20383;-75
2022/12/05 00:13:19;;;;;;;;;;;;;;;3.29;100.00;102046.06;5063601;28;19928;-75
2022/12/05 00:15:45;;;;;;;;;;;;;;;3.29;100.00;102043.44;5062040;28;19939;-75
2022/12/05 00:18:10;;;;;;;;;;;;;;;3.31;100.00;102049.56;5063627;28;19928;-75
2022/12/05 00:20:36;;;;;;;;;;;;;;;3.31;100.00;102046.94;5062533;28;19954;-75
2022/12/05 00:23:01;;;;;;;;;;;;;;;3.31;100.00;102054.78;5046556;28;19932;-75
2022/12/05 00:25:26;;;;;;;;;;;;;;;3.31;100.00;102048.69;5063835;28;19928;-75
2022/12/05 00:27:52;;;;;;;;;;;;;;;3.33;100.00;102050.44;5062408;28;19932;-75
2022/12/05 00:30:18;;;;;;;;;;;;;;;3.32;100.00;102047.81;5050725;28;20012;-75
2022/12/05 00:32:43;;;;;;;;;;;;;;;3.32;100.00;102045.22;5045094;28;20394;-75
2022/12/05 00:35:08;;;;;;;;;;;;;;;3.31;100.00;102046.94;5062591;28;19934;-75
2022/12/05 00:37:34;;;;;;;;;;;;;;;3.32;100.00;102045.22;5062720;28;19928;-75
2022/12/05 00:40:02;;;;;;;;;;;;;;;3.32;100.00;102040.84;5069576;28;19933;-75
2022/12/05 00:42:28;;;;;;;;;;;;;;;3.32;100.00;102038.22;5044391;28;19935;-75
2022/12/05 00:44:53;;;;;;;;;;;;;;;3.32;100.00;102043.44;5063708;28;19973;-75
2022/12/05 00:47:18;;;;;;;;;;;;;;;3.32;100.00;102040.84;5062385;28;19932;-75
2022/12/05 00:49:44;;;;;;;;;;;;;;;3.34;100.00;102035.59;5062166;28;19924;-75
2022/12/05 00:52:09;;;;;;;;;;;;;;;3.34;100.00;102028.66;5063733;28;19963;-75
2022/12/05 00:54:35;;;;;;;;;;;;;;;3.34;100.00;102044.34;5062447;28;19981;-75
2022/12/05 00:57:00;;;;;;;;;;;;;;;3.35;100.00;102033.00;5063013;28;19928;-75
2022/12/05 00:59:25;;;;;;;;;;;;;;;3.36;100.00;102034.75;5063434;28;19982;-75
2022/12/05 01:01:51;;;;;;;;;;;;;;;3.36;100.00;102039.97;5067552;28;20402;-75
2022/12/05 01:04:20;;;;;;;;;;;;;;;3.36;100.00;102050.47;5068026;28;20477;-75
2022/12/05 01:06:46;;;;;;;;;;;;;;;3.36;100.00;102042.59;5066264;28;20379;-75
2022/12/05 01:09:12;;;;;;;;;;;;;;;3.37;100.00;102046.97;5066887;27;19924;-75
2022/12/05 01:11:37;;;;;;;;;;;;;;;3.38;100.00;102034.75;5081569;28;19928;-75
2022/12/05 01:14:03;;;;;;;;;;;;;;;3.40;100.00;102039.09;5066036;28;20445;-75
2022/12/05 01:16:30;;;;;;;;;;;;;;;3.42;100.00;102038.28;5065975;28;20383;-75
2022/12/05 01:18:56;;;;;;;;;;;;;;;3.44;100.00;102031.28;5066147;28;19924;-75
2022/12/05 01:21:22;;;;;;;;;;;;;;;3.46;100.00;102040.00;5065365;28;20347;-74
2022/12/05 01:23:47;;;;;;;;;;;;;;;3.47;100.00;102032.16;5066245;28;19920;-75
2022/12/05 01:26:13;;;;;;;;;;;;;;;3.51;100.00;102038.28;5065905;28;19946;-75
2022/12/05 01:28:39;;;;;;;;;;;;;;;3.53;100.00;102045.28;5065459;28;19931;-75
2022/12/05 01:31:06;;;;;;;;;;;;;;;3.53;100.00;102041.78;5067296;28;21628;-74
2022/12/05 01:33:31;;;;;;;;;;;;;;;3.53;100.00;102028.69;5054861;28;19950;-74
2022/12/05 01:35:57;;;;;;;;;;;;;;;3.52;100.00;102032.19;5065014;28;20394;-75
2022/12/05 01:38:23;;;;;;;;;;;;;;;3.52;100.00;102032.19;5065907;28;19938;-74
2022/12/05 01:40:48;;;;;;;;;;;;;;;3.53;100.00;102041.78;5065772;27;19947;-75
2022/12/05 01:43:15;;;;;;;;;;;;;;;3.52;100.00;102040.03;5067255;28;19932;-75
2022/12/05 01:45:41;;;;;;;;;;;;;;;3.52;100.00;102040.91;5069661;28;19924;-74
2022/12/05 01:48:09;;;;;;;;;;;;;;;3.52;100.00;102043.53;5065717;28;19928;-74
2022/12/05 01:50:35;;;;;;;;;;;;;;;3.53;100.00;102039.16;5065668;28;20601;-75
2022/12/05 01:53:00;;;;;;;;;;;;;;;3.53;100.00;102039.16;5047421;28;19932;-75
2022/12/05 01:55:25;;;;;;;;;;;;;;;3.55;100.00;102039.16;5053028;28;19929;-75
2022/12/05 01:57:51;;;;;;;;;;;;;;;3.52;100.00;102033.06;5064230;28;19950;-75
2022/12/05 02:00:17;;;;;;;;;;;;;;;3.54;100.00;102035.66;5065188;28;20011;-74
2022/12/05 02:02:45;;;;;;;;;;;;;;;3.55;100.00;102032.19;5052954;28;19929;-75
2022/12/05 02:05:12;;;;;;;;;;;;;;;3.56;100.00;102030.44;5065535;28;21479;-75
2022/12/05 02:07:38;;;;;;;;;;;;;;;3.56;100.00;102033.94;5065805;28;20028;-74
2022/12/05 02:10:04;;;;;;;;;;;;;;;3.58;100.00;102023.44;5064685;28;19979;-74
2022/12/05 02:12:32;;;;;;;;;;;;;;;3.59;100.00;102023.47;5064164;28;19935;-75
2022/12/05 02:14:57;;;;;;;;;;;;;;;3.61;100.00;102019.13;5052786;28;19932;-75
2022/12/05 02:17:36;;;;;;;;;;;;;;;3.63;100.00;102020.00;5065040;28;19975;-75
2022/12/05 02:20:02;;;;;;;;;;;;;;;3.65;100.00;102014.78;5051341;28;20013;-75
2022/12/05 02:22:33;;;;;;;;;;;;;;;3.67;100.00;102019.13;5065668;28;19932;-75
2022/12/05 02:25:13;;;;;;;;;;;;;;;3.71;100.00;102019.13;5066418;28;19963;-74
2022/12/05 02:27:57;;;;;;;;;;;;;;;3.72;100.00;102013.91;5039764;28;19928;-75
2022/12/05 02:30:23;;;;;;;;;;;;;;;3.74;100.00;102011.28;5066171;28;19928;-74
2022/12/05 02:33:03;;;;;;;;;;;;;;;3.75;100.00;102010.41;5064930;28;19935;-75
2022/12/05 02:35:36;;;;;;;;;;;;;;;3.78;100.00;102005.19;5071917;28;19936;-75
2022/12/05 02:38:02;;;;;;;;;;;;;;;3.78;100.00;102006.06;5064808;28;20014;-75
2022/12/05 02:40:31;;;;;;;;;;;;;;;3.80;100.00;102008.66;5065478;28;19923;-74
2022/12/05 02:43:02;;;;;;;;;;;;;;;3.82;100.00;102009.56;5064349;28;20027;-74
2022/12/05 02:45:27;;;;;;;;;;;;;;;3.85;100.00;102016.53;5066209;28;20019;-75
2022/12/05 02:47:53;;;;;;;;;;;;;;;3.86;100.00;102007.81;5064742;28;19930;-75
2022/12/05 02:50:24;;;;;;;;;;;;;;;3.87;100.00;102013.03;5064459;28;19934;-75
2022/12/05 02:52:49;;;;;;;;;;;;;;;3.90;100.00;102012.16;5064522;28;20034;-75
2022/12/05 02:55:15;;;;;;;;;;;;;;;3.92;100.00;102016.53;5064684;28;20023;-74
2022/12/05 02:57:42;;;;;;;;;;;;;;;3.93;100.00;102009.56;5063450;28;20467;-75
2022/12/05 03:00:07;;;;;;;;;;;;;;;3.94;100.00;102013.94;5046187;28;20027;-75
2022/12/05 03:02:33;;;;;;;;;;;;;;;3.96;100.00;102013.94;5064283;28;20523;-75
2022/12/05 03:05:17;;;;;;;;;;;;;;;3.97;100.00;102016.53;5063731;28;19936;-75
2022/12/05 03:07:43;;;;;;;;;;;;;;;3.98;100.00;102020.06;5064539;28;19924;-75
2022/12/05 03:10:09;;;;;;;;;;;;;;;3.99;100.00;102016.56;5064062;28;20098;-75
2022/12/05 03:12:36;;;;;;;;;;;;;;;3.98;100.00;102017.44;5063561;28;19929;-75
2022/12/05 03:15:03;;;;;;;;;;;;;;;4.00;100.00;102031.41;5063871;28;19928;-75
2022/12/05 03:17:29;;;;;;;;;;;;;;;4.01;100.00;102020.03;5064068;28;20298;-75
2022/12/05 03:20:06;;;;;;;;;;;;;;;3.99;100.00;102025.31;5072052;28;21662;-75
2022/12/05 03:22:37;;;;;;;;;;;;;;;4.00;100.00;102032.28;5061930;28;19924;-75
2022/12/05 03:25:02;;;;;;;;;;;;;;;4.02;100.00;102029.66;5065528;28;20019;-75
2022/12/05 03:27:28;;;;;;;;;;;;;;;4.02;100.00;102034.88;5063675;28;19930;-75
2022/12/05 03:29:53;;;;;;;;;;;;;;;4.03;100.00;102034.03;5063891;28;20323;-75
2022/12/05 03:32:23;;;;;;;;;;;;;;;4.03;100.00;102032.28;5063424;28;19923;-74
2022/12/05 03:34:48;;;;;;;;;;;;;;;4.05;100.00;102027.03;5063327;28;20513;-75
2022/12/05 03:37:16;;;;;;;;;;;;;;;4.07;100.00;102033.16;5063354;28;21775;-74
2022/12/05 03:39:43;;;;;;;;;;;;;;;4.06;100.00;102034.91;5063180;28;19974;-75
2022/12/05 03:42:09;;;;;;;;;;;;;;;4.07;100.00;102030.53;5063245;28;20326;-75
2022/12/05 03:44:42;;;;;;;;;;;;;;;4.07;100.00;102033.16;5063085;28;19935;-75
2022/12/05 03:47:13;;;;;;;;;;;;;;;4.07;100.00;102041.00;5063573;28;19977;-75
2022/12/05 03:49:40;;;;;;;;;;;;;;;4.05;100.00;102035.75;5064335;28;19931;-75
2022/12/05 03:52:10;;;;;;;;;;;;;;;4.04;100.00;102035.78;5063169;28;20485;-74
2022/12/05 03:54:45;;;;;;;;;;;;;;;4.03;100.00;102034.91;5063129;28;19924;-75
2022/12/05 03:57:14;;;;;;;;;;;;;;;4.03;100.00;102034.03;5062633;28;19924;-75
2022/12/05 03:59:41;;;;;;;;;;;;;;;4.03;100.00;102034.03;5063279;28;19924;-75
2022/12/05 04:02:09;;;;;;;;;;;;;;;4.03;100.00;102034.03;5063337;28;19978;-75
2022/12/05 04:04:36;;;;;;;;;;;;;;;4.02;100.00;102035.78;5045299;28;20026;-75
2022/12/05 04:07:03;;;;;;;;;;;;;;;4.03;100.00;102045.38;5064145;28;19943;-75
2022/12/05 04:09:34;;;;;;;;;;;;;;;4.01;100.00;102034.03;5029660;28;20284;-75
2022/12/05 04:12:04;;;;;;;;;;;;;;;4.02;100.00;102037.50;5062563;28;19928;-74
2022/12/05 04:14:30;;;;;;;;;;;;;;;4.03;100.00;102039.28;5062737;28;20391;-75
2022/12/05 04:17:04;;;;;;;;;;;;;;;4.03;100.00;102036.66;5061030;28;19932;-75
2022/12/05 04:22:21;;;;;;;;;;;;;;;4.03;100.00;102036.66;5062862;28;19928;-74
2022/12/05 04:27:49;;;;;;;;;;;;;;;4.02;100.00;102037.50;5062919;28;19924;-74
2022/12/05 04:30:15;;;;;;;;;;;;;;;4.02;100.00;102042.75;5063867;28;19990;-75
2022/12/05 04:32:45;;;;;;;;;;;;;;;4.02;100.00;102041.03;5062278;28;19919;-75
2022/12/05 04:35:12;;;;;;;;;;;;;;;4.03;100.00;102041.91;5064426;28;20066;-75
2022/12/05 04:37:38;;;;;;;;;;;;;;;4.03;100.00;102039.28;5068372;28;19924;-75
2022/12/05 04:40:08;;;;;;;;;;;;;;;4.02;100.00;102040.13;5070220;28;19928;-74
2022/12/05 04:42:34;;;;;;;;;;;;;;;4.02;100.00;102041.03;5066950;28;19931;-74
2022/12/05 04:45:01;;;;;;;;;;;;;;;4.01;100.00;102046.25;5048972;28;19925;-75
2022/12/05 04:47:28;;;;;;;;;;;;;;;4.02;100.00;102040.13;5066852;28;19928;-76
2022/12/05 04:49:53;;;;;;;;;;;;;;;4.02;100.00;102038.41;5066281;28;20362;-74
2022/12/05 04:52:19;;;;;;;;;;;;;;;4.03;100.00;102044.53;5065285;28;19931;-74
2022/12/05 04:54:52;;;;;;;;;;;;;;;4.02;100.00;102040.13;5066650;28;19936;-74
2022/12/05 04:57:20;;;;;;;;;;;;;;;4.03;100.00;102049.78;5054042;28;20392;-74
2022/12/05 04:59:45;;;;;;;;;;;;;;;4.03;100.00;102040.13;5066924;28;19929;-75
2022/12/05 05:02:11;;;;;;;;;;;;;;;4.03;100.00;102041.91;5051654;28;19928;-74
2022/12/05 05:04:39;;;;;;;;;;;;;;;4.02;100.00;102040.13;5066279;28;19967;-75
2022/12/05 05:07:06;;;;;;;;;;;;;;;4.02;100.00;102042.75;5053643;28;20399;-75
2022/12/05 05:09:31;;;;;;;;;;;;;;;4.02;100.00;102048.88;5064993;28;19928;-75
2022/12/05 05:11:56;;;;;;;;;;;;;;;4.01;100.00;102041.00;5066130;28;20383;-75
2022/12/05 05:14:22;;;;;;;;;;;;;;;4.01;100.00;102044.50;5066159;28;19932;-75
2022/12/05 05:16:47;;;;;;;;;;;;;;;4.01;100.00;102051.50;5048155;28;19924;-74
2022/12/05 05:19:12;;;;;;;;;;;;;;;4.01;100.00;102043.63;5066046;28;19960;-74
2022/12/05 05:21:39;;;;;;;;;;;;;;;4.02;100.00;102048.00;5066955;28;19993;-75
2022/12/05 05:24:05;;;;;;;;;;;;;;;4.01;100.00;102041.91;5065960;28;19931;-74
2022/12/05 05:26:32;;;;;;;;;;;;;;;4.03;100.00;102044.53;5066040;28;19924;-75
2022/12/05 05:28:58;;;;;;;;;;;;;;;4.04;100.00;102038.41;5065603;28;19931;-75
2022/12/05 05:31:23;;;;;;;;;;;;;;;4.04;100.00;102041.03;5052769;28;19928;-75
2022/12/05 05:33:51;;;;;;;;;;;;;;;4.05;100.00;102042.78;5065727;28;19928;-75
2022/12/05 05:36:16;;;;;;;;;;;;;;;4.06;100.00;102041.91;5065492;28;20023;-75
2022/12/05 05:38:42;;;;;;;;;;;;;;;4.06;100.00;102039.28;5066960;28;20326;-75
2022/12/05 05:41:12;;;;;;;;;;;;;;;4.10;100.00;102050.63;5064602;28;19926;-75
2022/12/05 05:43:38;;;;;;;;;;;;;;;4.08;100.00;102042.75;5065608;28;20377;-75
2022/12/05 05:46:03;;;;;;;;;;;;;;;4.09;100.00;102044.53;5066992;28;20783;-74
2022/12/05 05:48:29;;;;;;;;;;;;;;;4.10;100.00;102041.03;5065823;28;19932;-75
2022/12/05 05:50:54;;;;;;;;;;;;;;;4.11;100.00;102047.13;5047509;28;20050;-75
2022/12/05 05:53:19;;;;;;;;;;;;;;;4.12;100.00;102048.88;5050859;28;19929;-75
2022/12/05 05:55:45;;;;;;;;;;;;;;;4.12;100.00;102041.91;5054531;28;19939;-75
2022/12/05 05:58:10;;;;;;;;;;;;;;;4.11;100.00;102048.03;5052711;28;19959;-75
2022/12/05 06:00:35;;;;;;;;;;;;;;;4.12;100.00;102048.88;5052555;28;19932;-75
2022/12/05 06:03:01;;;;;;;;;;;;;;;4.12;100.00;102052.38;5064295;28;19928;-75
2022/12/05 06:05:26;;;;;;;;;;;;;;;4.11;100.00;102042.78;5063871;28;19928;-75
2022/12/05 06:07:52;;;;;;;;;;;;;;;4.12;100.00;102046.25;5065432;28;19932;-75
2022/12/05 06:10:17;;;;;;;;;;;;;;;4.13;100.00;102051.50;5064606;28;19928;-75
2022/12/05 06:12:43;;;;;;;;;;;;;;;4.12;100.00;102046.25;5066438;28;19935;-75
2022/12/05 06:15:08;;;;;;;;;;;;;;;4.13;100.00;102046.28;5064929;28;20023;-75
2022/12/05 06:17:33;;;;;;;;;;;;;;;4.12;100.00;102043.63;5064408;28;19928;-76
2022/12/05 06:19:59;;;;;;;;;;;;;;;4.12;100.00;102041.91;5038207;28;20752;-74
2022/12/05 06:22:24;;;;;;;;;;;;;;;4.11;100.00;102042.78;5066292;28;19962;-75
2022/12/05 06:24:49;;;;;;;;;;;;;;;4.11;100.00;102048.03;5064245;28;20363;-75
2022/12/05 06:27:15;;;;;;;;;;;;;;;4.11;100.00;102045.41;5063707;28;19932;-75
2022/12/05 06:29:40;;;;;;;;;;;;;;;4.08;100.00;102043.66;5065044;28;19935;-75
2022/12/05 06:32:05;;;;;;;;;;;;;;;4.08;100.00;102042.75;5048117;28;19925;-74
2022/12/05 06:34:31;;;;;;;;;;;;;;;4.08;100.00;102053.25;5065836;28;20348;-75
2022/12/05 06:36:57;;;;;;;;;;;;;;;4.08;100.00;102055.88;5064522;28;19956;-75
2022/12/05 06:39:22;;;;;;;;;;;;;;;4.07;100.00;102062.88;5046146;28;19985;-75
2022/12/05 06:41:51;;;;;;;;;;;;;;;4.07;100.00;102056.75;5064046;28;19928;-75
2022/12/05 06:44:16;;;;;;;;;;;;;;;4.05;100.00;102053.25;5030341;28;19947;-75
2022/12/05 06:46:41;;;;;;;;;;;;;;;4.06;100.00;102052.38;5051741;28;20379;-74
2022/12/05 06:49:08;;;;;;;;;;;;;;;4.06;100.00;102058.50;5065081;28;20005;-74
2022/12/05 06:51:33;;;;;;;;;;;;;;;4.07;100.00;102056.75;5064150;28;19924;-75
2022/12/05 06:53:58;;;;;;;;;;;;;;;4.06;100.00;102066.38;5047576;28;19967;-76
2022/12/05 06:56:24;;;;;;;;;;;;;;;4.06;100.00;102066.38;5065588;28;20395;-76
2022/12/05 06:58:51;;;;;;;;;;;;;;;4.07;100.00;102061.97;5062840;28;19977;-76
2022/12/05 07:04:02;;;;;;;;;;;;;;;4.07;100.00;102062.88;5064337;28;19936;-76
2022/12/05 07:06:27;;;;;;;;;;;;;;;4.08;100.00;102059.38;5064256;28;19935;-77
2022/12/05 07:08:52;;;;;;;;;;;;;;;4.10;100.00;102062.00;5065239;28;19932;-76
2022/12/05 07:11:18;;;;;;;;;;;;;;;4.10;100.00;102061.13;5063651;28;19968;-76
2022/12/05 07:13:43;;;;;;;;;;;;;;;4.10;100.00;102062.00;5029791;28;19928;-76
2022/12/05 07:16:08;;;;;;;;;;;;;;;4.11;100.00;102068.09;5047092;28;20029;-76
2022/12/05 07:18:34;;;;;;;;;;;;;;;4.10;100.00;102064.63;5045749;28;19936;-76
2022/12/05 07:21:00;;;;;;;;;;;;;;;4.11;100.00;102069.00;5063832;28;19934;-76
2022/12/05 07:23:26;;;;;;;;;;;;;;;4.11;100.00;102060.25;5063297;28;19932;-76
2022/12/05 07:25:51;;;;;;;;;;;;;;;4.13;100.00;102071.63;5051320;28;19948;-76
2022/12/05 07:28:17;;;;;;;;;;;;;;;4.12;100.00;102069.84;5063259;28;19932;-76
2022/12/05 07:30:42;;;;;;;;;;;;;;;4.13;100.00;102069.84;5063206;28;19928;-76
2022/12/05 07:33:07;;;;;;;;;;;;;;;4.12;100.00;102068.13;5051459;28;19928;-76
2022/12/05 07:35:33;;;;;;;;;;;;;;;4.13;100.00;102067.25;5063153;28;20464;-75
2022/12/05 07:37:58;;;;;;;;;;;;;;;4.14;100.00;102068.13;5062234;28;20726;-76
2022/12/05 07:40:23;;;;;;;;;;;;;;;4.14;100.00;102068.97;5036671;28;19932;-75
2022/12/05 07:42:49;;;;;;;;;;;;;;;4.15;100.00;102070.72;5064468;28;19932;-76
2022/12/05 07:45:14;;;;;;;;;;;;;;;4.16;100.00;102061.13;5049216;28;21980;-76
2022/12/05 07:47:40;;;;;;;;;;;;;;;4.15;100.00;102060.25;5064697;28;19926;-76
2022/12/05 07:50:06;;;;;;;;;;;;;;;4.16;100.00;102067.25;5045394;28;20728;-76
2022/12/05 07:52:31;;;;;;;;;;;;;;;4.16;100.00;102067.25;5063313;28;19928;-76
2022/12/05 07:54:57;;;;;;;;;;;;;;;4.16;100.00;102069.88;5050423;28;20369;-75
2022/12/05 07:57:22;;;;;;;;;;;;;;;4.16;100.00;102067.25;5037942;28;19982;-75
2022/12/05 07:59:48;;;;;;;;;;;;;;;4.16;100.00;102067.25;5046802;28;20017;-75
2022/12/05 08:02:13;;;;;;;;;;;;;;;4.16;100.00;102072.50;5063333;28;19928;-75
2022/12/05 08:04:38;;;;;;;;;;;;;;;4.16;100.00;102061.13;5062172;28;20070;-76
2022/12/05 08:07:07;;;;;;;;;;;;;;;4.16;100.00;102075.13;5063439;28;20429;-75
2022/12/05 08:09:33;;;;;;;;;;;;;;;4.16;100.00;102069.88;5053126;28;19928;-75
2022/12/05 08:11:58;;;;;;;;;;;;;;;4.16;100.00;102076.84;5064675;28;19928;-76
2022/12/05 08:14:24;;;;;;;;;;;;;;;4.16;100.00;102077.75;5063483;28;19928;-76
2022/12/05 08:16:49;;;;;;;;;;;;;;;4.18;100.00;102072.47;5062483;28;20401;-75
2022/12/05 08:19:15;;;;;;;;;;;;;;;4.18;100.00;102078.59;5062746;28;19940;-75
2022/12/05 08:21:41;;;;;;;;;;;;;;;4.18;100.00;102073.38;5062841;28;20057;-75
2022/12/05 08:24:06;;;;;;;;;;;;;;;4.19;100.00;102077.72;5062773;28;19928;-75
2022/12/05 08:26:32;;;;;;;;;;;;;;;4.20;100.00;102082.09;5063189;28;19924;-75
2022/12/05 08:28:59;;;;;;;;;;;;;;;4.21;100.00;102073.34;5062088;28;19924;-76
2022/12/05 08:31:25;;;;;;;;;;;;;;;4.21;100.00;102075.97;5033943;28;19950;-75
2022/12/05 08:33:51;;;;;;;;;;;;;;;4.24;100.00;102079.50;5063348;28;20384;-75
2022/12/05 08:36:16;;;;;;;;;;;;;;;4.25;100.00;102078.63;5062678;28;20386;-75
2022/12/05 08:38:42;;;;;;;;;;;;;;;4.25;100.00;102087.34;5028346;28;19924;-75
2022/12/05 08:41:08;;;;;;;;;;;;;;;4.27;100.00;102084.72;5062737;28;19924;-76
2022/12/05 08:43:37;;;;;;;;;;;;;;;4.29;100.00;102082.97;5046013;28;20315;-75
2022/12/05 08:46:02;;;;;;;;;;;;;;;4.29;100.00;102085.59;5061756;28;20156;-76
2022/12/05 08:48:28;;;;;;;;;;;;;;;4.31;100.00;102083.88;5061389;28;20030;-76
2022/12/05 08:50:53;;;;;;;;;;;;;;;4.33;100.00;102082.13;5063575;28;20079;-76
2022/12/05 08:53:19;;;;;;;;;;;;;;;4.34;100.00;102086.47;5064107;28;19960;-76
2022/12/05 08:55:44;;;;;;;;;;;;;;;4.34;100.00;102089.09;5057745;28;19940;-76
2022/12/05 08:58:10;;;;;;;;;;;;;;;4.35;100.00;102098.72;5063752;28;20529;-77
2022/12/05 09:00:35;;;;;;;;;;;;;;;4.35;100.00;102098.72;5060905;28;19952;-76
2022/12/05 09:03:01;;;;;;;;;;;;;;;4.35;100.00;102099.59;5054852;28;19928;-76
2022/12/05 09:05:26;;;;;;;;;;;;;;;4.36;100.00;102095.22;5062841;28;19933;-76
2022/12/05 09:07:52;;;;;;;;;;;;;;;4.36;100.00;102100.47;5063681;28;19932;-78
2022/12/05 09:10:17;;;;;;;;;;;;;;;4.36;100.00;102097.84;5043992;28;20023;-76
2022/12/05 09:12:43;;;;;;;;;;;;;;;4.37;100.00;102109.22;5043979;28;19935;-76
2022/12/05 09:15:09;;;;;;;;;;;;;;;4.37;100.00;102109.22;5058117;28;19981;-77
2022/12/05 09:17:35;;;;;;;;;;;;;;;4.37;100.00;102107.47;5062423;28;19932;-76
2022/12/05 09:20:00;;;;;;;;;;;;;;;4.38;100.00;102114.47;5067123;28;19978;-76
2022/12/05 09:22:25;;;;;;;;;;;;;;;4.38;100.00;102117.09;5044746;28;20006;-76
2022/12/05 09:24:51;;;;;;;;;;;;;;;4.38;100.00;102108.34;5059703;28;19924;-76
2022/12/05 09:27:16;;;;;;;;;;;;;;;4.39;100.00;102110.97;5060674;28;19935;-75
2022/12/05 09:29:42;;;;;;;;;;;;;;;4.40;100.00;102106.59;5058586;28;19928;-76
2022/12/05 09:32:07;;;;;;;;;;;;;;;4.41;100.00;102119.69;5060577;28;20379;-76
2022/12/05 09:34:33;;;;;;;;;;;;;;;4.40;100.00;102110.09;5056421;28;20437;-76
2022/12/05 09:37:00;;;;;;;;;;;;;;;4.41;100.00;102119.69;5057038;28;19928;-76
2022/12/05 09:39:26;;;;;;;;;;;;;;;4.42;100.00;102117.97;5061504;28;20793;-76
2022/12/05 09:42:03;;;;;;;;;;;;;;;4.42;100.00;102116.19;5059710;28;19929;-76
2022/12/05 09:44:41;;;;;;;;;;;;;;;4.43;100.00;102120.59;5057760;28;19928;-76
2022/12/05 09:47:20;;;;;;;;;;;;;;;4.43;100.00;102117.97;5054148;28;20422;-76
2022/12/05 09:49:47;;;;;;;;;;;;;;;4.42;100.00;102108.34;5043636;28;19928;-76
2022/12/05 09:52:16;;;;;;;;;;;;;;;4.44;100.00;102118.84;5054600;28;19935;-76
2022/12/05 09:54:42;;;;;;;;;;;;;;;4.44;100.00;102119.72;5055377;28;19928;-77
2022/12/05 09:57:08;;;;;;;;;;;;;;;4.44;100.00;102114.47;5059722;28;19932;-76
2022/12/05 09:59:33;;;;;;;;;;;;;;;4.44;100.00;102109.22;5041536;28;19924;-78
2022/12/05 10:02:03;;;;;;;;;;;;;;;4.45;100.00;102110.09;5053091;28;20379;-76
2022/12/05 10:04:35;;;;;;;;;;;;;;;4.45;100.00;102105.72;5042548;28;19928;-76
2022/12/05 10:07:06;;;;;;;;;;;;;;;4.45;100.00;102103.09;5060534;28;20038;-76
2022/12/05 10:09:37;;;;;;;;;;;;;;;4.45;100.00;102096.97;5058869;28;19988;-76
2022/12/05 10:12:03;;;;;;;;;;;;;;;4.47;100.00;102098.72;5061095;28;19939;-76
2022/12/05 10:14:28;;;;;;;;;;;;;;;4.48;100.00;102095.22;5056623;28;20015;-76
2022/12/05 10:16:54;;;;;;;;;;;;;;;4.49;100.00;102096.13;5052902;28;21528;-76
2022/12/05 10:19:24;;;;;;;;;;;;;;;4.51;100.00;102093.50;5049649;28;20582;-76
2022/12/05 10:21:51;;;;;;;;;;;;;;;4.52;100.00;102097.88;5060492;28;19928;-76
2022/12/05 10:24:26;;;;;;;;;;;;;;;4.51;100.00;102098.75;5058120;28;20133;-76
2022/12/05 10:26:54;;;;;;;;;;;;;;;4.52;100.00;102090.00;5055242;28;19936;-78
2022/12/05 10:29:24;;;;;;;;;;;;;;;4.52;100.00;102092.63;5055495;28;20060;-76
2022/12/05 10:31:51;;;;;;;;;;;;;;;4.53;100.00;102089.13;5056131;28;20474;-76
2022/12/05 10:34:19;;;;;;;;;;;;;;;4.53;100.00;102094.38;5057223;28;19975;-76
2022/12/05 10:36:52;;;;;;;;;;;;;;;4.53;100.00;102096.97;5054836;28;19975;-76
2022/12/05 10:39:18;;;;;;;;;;;;;;;4.54;100.00;102089.13;5047043;28;19970;-76
2022/12/05 10:41:43;;;;;;;;;;;;;;;4.54;100.00;102096.09;5050747;28;20036;-80
2022/12/05 10:44:09;;;;;;;;;;;;;;;4.55;100.00;102101.34;5055020;28;19993;-76
2022/12/05 10:46:36;;;;;;;;;;;;;;;4.54;100.00;102091.75;5058672;28;19939;-77
2022/12/05 10:49:04;;;;;;;;;;;;;;;4.54;100.00;102094.38;5058717;28;19934;-77
2022/12/05 10:51:30;;;;;;;;;;;;;;;4.54;100.00;102085.63;5046250;28;20563;-78
2022/12/05 10:53:55;;;;;;;;;;;;;;;4.54;100.00;102088.25;5057554;28;20534;-77
2022/12/05 10:56:35;;;;;;;;;;;;;;;4.53;100.00;102092.59;5054159;28;19928;-78
2022/12/05 10:59:03;;;;;;;;;;;;;;;4.55;100.00;102092.59;5039535;28;20288;-79
2022/12/05 11:01:28;;;;;;;;;;;;;;;4.55;100.00;102084.72;5058058;28;19931;-79
2022/12/05 11:03:58;;;;;;;;;;;;;;;4.55;100.00;102089.97;5058165;28;19932;-76
2022/12/05 11:06:24;;;;;;;;;;;;;;;4.54;100.00;102093.47;5051819;28;20023;-75
2022/12/05 11:08:50;;;;;;;;;;;;;;;4.54;100.00;102094.38;5037926;28;19928;-75
2022/12/05 11:11:20;;;;;;;;;;;;;;;4.53;100.00;102096.97;5059052;28;19924;-76
2022/12/05 11:13:56;;;;;;;;;;;;;;;4.52;100.00;102090.00;5040473;28;19928;-76
2022/12/05 11:16:23;;;;;;;;;;;;;;;4.50;100.00;102087.38;5058061;28;19932;-77
2022/12/05 11:18:48;;;;;;;;;;;;;;;4.49;100.00;102090.88;5041419;28;19931;-76
2022/12/05 11:21:16;;;;;;;;;;;;;;;4.48;100.00;102084.72;5056326;28;19983;-76
2022/12/05 11:23:42;;;;;;;;;;;;;;;4.48;100.00;102089.97;5051973;28;19916;-76
2022/12/05 11:26:16;;;;;;;;;;;;;;;4.48;100.00;102089.97;5056597;28;20711;-76
2022/12/05 11:28:41;;;;;;;;;;;;;;;4.48;100.00;102092.59;5056032;28;19932;-76
2022/12/05 11:31:12;;;;;;;;;;;;;;;4.49;100.00;102083.84;5056727;28;19932;-76
2022/12/05 11:33:38;;;;;;;;;;;;;;;4.47;100.00;102080.38;5057637;28;19936;-76
2022/12/05 11:36:13;;;;;;;;;;;;;;;4.47;100.00;102080.38;5059197;28;20386;-76
2022/12/05 11:38:38;;;;;;;;;;;;;;;4.48;100.00;102076.00;5055554;28;20387;-77
2022/12/05 11:41:07;;;;;;;;;;;;;;;4.47;100.00;102072.50;5058299;28;19978;-76
2022/12/05 11:44:08;;;;;;;;;;;;;;;4.47;100.00;102076.88;5059461;28;19924;-77
2022/12/05 11:46:38;;;;;;;;;;;;;;;4.44;100.00;102075.13;5003466;28;19929;-77
2022/12/05 11:49:13;;;;;;;;;;;;;;;4.44;100.00;102069.00;5046529;28;19924;-77
2022/12/05 11:52:00;;;;;;;;;;;;;;;4.42;100.00;102071.63;5044699;28;19985;-77
2022/12/05 11:54:26;;;;;;;;;;;;;;;4.41;100.00;102069.88;5039699;28;19932;-77
2022/12/05 11:56:58;;;;;;;;;;;;;;;4.40;100.00;102069.91;5055910;28;20467;-77
2022/12/05 11:59:37;;;;;;;;;;;;;;;4.39;100.00;102069.00;5056885;28;20330;-76
2022/12/05 12:02:11;;;;;;;;;;;;;;;4.38;100.00;102067.25;5056065;28;19990;-77
2022/12/05 12:04:55;;;;;;;;;;;;;;;4.37;100.00;102065.53;5059462;28;20580;-76
2022/12/05 12:07:23;;;;;;;;;;;;;;;4.37;100.00;102073.38;5058051;28;19953;-76
2022/12/05 12:10:08;;;;;;;;;;;;;;;4.35;100.00;102067.25;5053198;28;19928;-77
2022/12/05 12:12:52;;;;;;;;;;;;;;;4.34;100.00;102073.38;5059632;28;19932;-77
2022/12/05 12:15:24;;;;;;;;;;;;;;;4.32;100.00;102067.25;5053282;28;20019;-76
2022/12/05 12:17:54;;;;;;;;;;;;;;;4.31;100.00;102063.75;5056330;28;19939;-77
2022/12/05 12:20:26;;;;;;;;;;;;;;;4.29;100.00;102062.88;5050237;28;19931;-76
2022/12/05 12:22:55;;;;;;;;;;;;;;;4.29;100.00;102065.50;5050397;28;19936;-77
2022/12/05 12:25:26;;;;;;;;;;;;;;;4.29;100.00;102065.50;5057476;28;19928;-76
2022/12/05 12:28:10;;;;;;;;;;;;;;;4.29;100.00;102052.41;5057297;28;19928;-77
2022/12/05 12:30:40;;;;;;;;;;;;;;;4.29;100.00;102051.50;5054621;28;20314;-76
2022/12/05 12:33:11;;;;;;;;;;;;;;;4.30;100.00;102053.28;5049553;28;19928;-77
2022/12/05 12:35:43;;;;;;;;;;;;;;;4.30;100.00;102055.91;5055420;28;19942;-77
2022/12/05 12:38:27;;;;;;;;;;;;;;;4.30;100.00;102050.66;5054731;28;20283;-77
2022/12/05 12:40:58;;;;;;;;;;;;;;;4.30;100.00;102045.41;5057238;28;19930;-79
2022/12/05 12:43:39;;;;;;;;;;;;;;;4.30;100.00;102050.66;5055299;28;20390;-77
2022/12/05 12:46:07;;;;;;;;;;;;;;;4.30;100.00;102048.03;5057385;28;20599;-77